XMG weather

Mahendranagar Airport
Mahendranagar, Mahakali, Nepal

Public forecast

Using degrees Celsius for public forecast. Weather courtesy of forecast.io.

METAR (pilot weather report)

Report is more than 6 hours old.

Closest report is Pantnagar Airport, 35.7 nm (66.0 km) W. Retrieved 2019/09/16 07:30 UTC (8 hours ago):

VIPT 160730Z 23003KT 4000 BR FEW020 BKN100 31/27 Q1004

TAF (pilot weather forecast)

Forecast is more than 12 hours old.

Closest forecast is Pantnagar Airport, 35.7 nm (66.0 km) W. Retrieved 2016/07/10 06:00 UTC (3 years ago):

TAF VIPT 100500Z 1006/1015 24005KT 4000 HZ FEW040 SCT100 TEMPO 1010/1015 2000 -TSRA SCT030 FEW035CB BKN090